createdAt,value
2022-11-06T00:01:14.937Z,98547.84
2022-11-06T00:03:41.969Z,98552.75
2022-11-06T00:06:31.003Z,98546.31
2022-11-06T00:08:59.995Z,98541.28
2022-11-06T00:11:26.982Z,98538.34
2022-11-06T00:13:54.163Z,98534.72
2022-11-06T00:16:21.335Z,98544.31
2022-11-06T00:18:48.736Z,98535.47
2022-11-06T00:21:27.072Z,98529.34
2022-11-06T00:23:54.827Z,98529.94
2022-11-06T00:26:24.941Z,98518.16
2022-11-06T00:28:52.163Z,98514.69
2022-11-06T00:31:21.270Z,98508.78
2022-11-06T00:33:48.235Z,98496.56
2022-11-06T00:36:18.798Z,98492.34
2022-11-06T00:38:45.939Z,98493.91
2022-11-06T00:41:14.802Z,98493.28
2022-11-06T00:43:42.177Z,98485.13
2022-11-06T00:46:12.758Z,98497.28
2022-11-06T00:48:40.709Z,98494.56
2022-11-06T00:51:14.544Z,98496.41
2022-11-06T00:53:41.837Z,98488.59
2022-11-06T00:56:11.656Z,98489.75
2022-11-06T00:58:39.053Z,98490.81
2022-11-06T01:01:28.055Z,98492.75
2022-11-06T01:03:59.941Z,98473.09
2022-11-06T01:06:29.673Z,98488.59
2022-11-06T01:08:57.096Z,98491.88
2022-11-06T01:11:27.096Z,98468.94
2022-11-06T01:13:56.118Z,98485.91
2022-11-06T01:16:23.917Z,98485.00
2022-11-06T01:18:51.517Z,98481.16
2022-11-06T01:21:23.911Z,98486.50
2022-11-06T01:23:58.990Z,98493.69
2022-11-06T01:26:37.717Z,98494.13
2022-11-06T01:29:07.842Z,98491.53
2022-11-06T01:31:34.988Z,98489.72
2022-11-06T01:34:03.159Z,98479.72
2022-11-06T01:36:30.185Z,98475.72
2022-11-06T01:38:59.517Z,98465.91
2022-11-06T01:41:47.153Z,98460.34
2022-11-06T01:44:35.554Z,98463.72
2022-11-06T01:47:04.773Z,98460.16
2022-11-06T01:49:36.460Z,98452.72
2022-11-06T01:52:07.708Z,98449.41
2022-11-06T01:54:36.443Z,98447.88
2022-11-06T01:57:04.346Z,98445.97
2022-11-06T01:59:34.546Z,98445.59
2022-11-06T02:02:01.405Z,98377.25
2022-11-06T02:04:35.079Z,98339.63
2022-11-06T02:07:02.544Z,98406.56
2022-11-06T02:09:31.088Z,98408.63
2022-11-06T02:12:02.677Z,98395.97
2022-11-06T02:15:14.032Z,98421.94
2022-11-06T02:18:10.058Z,98394.69
2022-11-06T02:21:04.401Z,98387.50
2022-11-06T02:23:37.570Z,98253.09
2022-11-06T02:26:33.649Z,98422.38
2022-11-06T02:29:15.206Z,98401.72
2022-11-06T02:31:44.585Z,98432.75
2022-11-06T02:34:17.189Z,98431.28
2022-11-06T02:36:51.994Z,98374.75
2022-11-06T02:39:22.923Z,98397.72
2022-11-06T02:41:52.683Z,98376.84
2022-11-06T02:44:23.683Z,98420.47
2022-11-06T02:47:02.218Z,98356.09
2022-11-06T02:49:52.994Z,98351.16
2022-11-06T02:52:29.372Z,98413.94
2022-11-06T02:55:04.958Z,98372.72
2022-11-06T02:57:37.751Z,98407.94
2022-11-06T03:00:06.705Z,98408.97
2022-11-06T03:02:41.000Z,98324.34
2022-11-06T03:05:14.198Z,98411.91
2022-11-06T03:08:23.368Z,98363.94
2022-11-06T03:10:57.852Z,98403.00
2022-11-06T03:13:30.764Z,98412.59
2022-11-06T03:16:05.401Z,98393.34
2022-11-06T03:19:25.032Z,98384.91
2022-11-06T03:22:02.476Z,98399.91
2022-11-06T03:24:35.106Z,98394.50
2022-11-06T03:27:15.387Z,98391.72
2022-11-06T03:29:49.992Z,98368.09
2022-11-06T03:32:22.909Z,98380.22
2022-11-06T03:34:58.815Z,98371.31
2022-11-06T03:37:33.171Z,98265.03
2022-11-06T03:40:03.201Z,98349.16
2022-11-06T03:42:32.198Z,98379.25
2022-11-06T03:45:06.497Z,98381.72
2022-11-06T03:47:45.236Z,98321.75
2022-11-06T03:50:24.260Z,98348.66
2022-11-06T03:52:55.682Z,98348.69
2022-11-06T03:55:26.974Z,98258.59
2022-11-06T03:58:05.414Z,98295.75
2022-11-06T04:00:35.529Z,98259.78
2022-11-06T04:03:07.932Z,98267.00
2022-11-06T04:05:40.761Z,98290.03
2022-11-06T04:08:28.516Z,98186.06
2022-11-06T04:11:19.333Z,98380.22
2022-11-06T04:13:57.303Z,98300.28
2022-11-06T04:16:26.574Z,98320.31
2022-11-06T04:18:53.179Z,98330.56
2022-11-06T04:21:37.565Z,98299.94
2022-11-06T04:24:35.445Z,98360.13
2022-11-06T04:27:26.809Z,98390.38
2022-11-06T04:30:03.134Z,98392.00
2022-11-06T04:32:54.579Z,98393.63
2022-11-06T04:36:11.162Z,98388.88
2022-11-06T04:38:43.911Z,98386.75
2022-11-06T04:41:16.482Z,98389.06
2022-11-06T04:43:49.053Z,98375.63
2022-11-06T04:46:21.440Z,98400.56
2022-11-06T04:48:49.632Z,98370.03
2022-11-06T04:51:21.175Z,98365.75
2022-11-06T04:53:49.817Z,98373.44
2022-11-06T04:56:35.194Z,98303.84
2022-11-06T04:59:05.163Z,98382.47
2022-11-06T05:01:32.106Z,98270.91
2022-11-06T05:03:59.302Z,98308.97
2022-11-06T05:06:50.640Z,98178.34
2022-11-06T05:09:43.138Z,98365.41
2022-11-06T05:12:09.880Z,98329.00
2022-11-06T05:14:36.657Z,98349.72
2022-11-06T05:17:03.595Z,98332.97
2022-11-06T05:19:30.177Z,98316.84
2022-11-06T05:22:15.655Z,98215.06
2022-11-06T05:24:42.355Z,98351.28
2022-11-06T05:27:09.017Z,98378.91
2022-11-06T05:29:36.620Z,98291.19
2022-11-06T05:32:03.688Z,98335.53
2022-11-06T05:34:30.409Z,98277.31
2022-11-06T05:36:57.629Z,98279.28
2022-11-06T05:39:24.412Z,98336.06
2022-11-06T05:41:51.254Z,98278.28
2022-11-06T05:44:17.925Z,98268.25
2022-11-06T05:46:49.627Z,98214.09
2022-11-06T05:49:18.613Z,98325.41
2022-11-06T05:51:45.703Z,98262.38
2022-11-06T05:54:12.723Z,98326.69
2022-11-06T05:56:39.431Z,98330.66
2022-11-06T05:59:06.291Z,98241.00
2022-11-06T06:01:33.283Z,98240.19
2022-11-06T06:04:00.047Z,98271.00
2022-11-06T06:06:27.032Z,98287.09
2022-11-06T06:08:53.584Z,98231.44
2022-11-06T06:11:20.409Z,98211.78
2022-11-06T06:13:48.523Z,98157.97
2022-11-06T06:16:16.040Z,98209.41
2022-11-06T06:18:42.700Z,98234.22
2022-11-06T06:21:09.305Z,98270.88
2022-11-06T06:23:35.929Z,98078.28
2022-11-06T06:26:02.601Z,98134.97
2022-11-06T06:28:29.341Z,98253.13
2022-11-06T06:31:01.067Z,98110.38
2022-11-06T06:33:28.199Z,98157.06
2022-11-06T06:35:54.822Z,98116.91
2022-11-06T06:38:21.625Z,98135.59
2022-11-06T06:40:48.505Z,98143.78
2022-11-06T06:43:15.117Z,98173.13
2022-11-06T06:45:49.915Z,98124.22
2022-11-06T06:48:16.687Z,98207.63
2022-11-06T06:50:43.525Z,98152.91
2022-11-06T06:53:10.164Z,98196.16
2022-11-06T06:55:36.895Z,98167.63
2022-11-06T06:58:03.931Z,98222.34
2022-11-06T07:00:30.697Z,97932.03
2022-11-06T07:02:59.340Z,98154.94
2022-11-06T07:05:26.082Z,98113.53
2022-11-06T07:07:52.761Z,98149.56
2022-11-06T07:10:19.695Z,98176.56
2022-11-06T07:12:46.432Z,98180.56
2022-11-06T07:15:14.465Z,98099.56
2022-11-06T07:17:41.771Z,98154.16
2022-11-06T07:20:09.433Z,97892.34
2022-11-06T07:22:37.567Z,97970.38
2022-11-06T07:25:05.547Z,98237.41
2022-11-06T07:27:32.364Z,98202.75
2022-11-06T07:30:00.588Z,98218.72
2022-11-06T07:32:27.977Z,98143.59
2022-11-06T07:34:55.331Z,98247.50
2022-11-06T07:37:22.214Z,98269.94
2022-11-06T07:39:48.889Z,98228.84
2022-11-06T07:42:15.576Z,98222.06
2022-11-06T07:44:56.197Z,98171.66
2022-11-06T07:47:23.166Z,98252.72
2022-11-06T07:49:51.243Z,98090.75
2022-11-06T07:52:18.168Z,98231.16
2022-11-06T07:54:45.077Z,98116.06
2022-11-06T07:57:11.669Z,98177.19
2022-11-06T07:59:38.381Z,98090.88
2022-11-06T08:02:05.291Z,98174.84
2022-11-06T08:04:32.214Z,98142.84
2022-11-06T08:06:59.929Z,98207.34
2022-11-06T08:09:26.780Z,98254.47
2022-11-06T08:11:53.350Z,98195.28
2022-11-06T08:14:20.018Z,98143.81
2022-11-06T08:16:48.203Z,98200.81
2022-11-06T08:19:15.831Z,98205.38
2022-11-06T08:21:42.501Z,98192.78
2022-11-06T08:24:09.255Z,98151.78
2022-11-06T08:26:36.001Z,98113.47
2022-11-06T08:29:02.719Z,98105.28
2022-11-06T08:31:29.995Z,98094.16
2022-11-06T08:33:56.736Z,98210.66
2022-11-06T08:36:24.516Z,98176.59
2022-11-06T08:38:51.180Z,98070.63
2022-11-06T08:41:20.053Z,98094.53
2022-11-06T08:43:51.536Z,98121.59
2022-11-06T08:46:18.360Z,97890.28
2022-11-06T08:48:45.029Z,98026.63
2022-11-06T08:51:11.636Z,97919.94
2022-11-06T08:53:42.327Z,98113.31
2022-11-06T08:56:09.012Z,98154.53
2022-11-06T08:58:35.915Z,98100.44
2022-11-06T09:01:02.977Z,98151.03
2022-11-06T09:03:29.736Z,98164.69
2022-11-06T09:05:56.274Z,98096.97
2022-11-06T09:08:25.032Z,97976.13
2022-11-06T09:10:57.270Z,97945.25
2022-11-06T09:13:25.353Z,98036.19
2022-11-06T09:15:51.953Z,97955.44
2022-11-06T09:18:18.657Z,98056.03
2022-11-06T09:20:45.479Z,98018.56
2022-11-06T09:23:12.894Z,98090.94
2022-11-06T09:25:41.780Z,98081.63
2022-11-06T09:28:08.511Z,98078.63
2022-11-06T09:30:35.165Z,98076.16
2022-11-06T09:33:02.890Z,98068.06
2022-11-06T09:35:34.038Z,97920.97
2022-11-06T09:38:04.854Z,97915.38
2022-11-06T09:40:38.152Z,98059.84
2022-11-06T09:47:15.297Z,97972.75
2022-11-06T09:49:48.062Z,97923.41
2022-11-06T09:56:17.729Z,98035.22
2022-11-06T09:58:44.909Z,98047.03
2022-11-06T10:01:25.992Z,97847.88
2022-11-06T10:04:02.319Z,97964.94
2022-11-06T10:06:35.125Z,97991.44
2022-11-06T10:09:06.690Z,97903.59
2022-11-06T10:11:57.867Z,97989.56
2022-11-06T10:14:31.866Z,98022.66
2022-11-06T10:17:30.784Z,98020.63
2022-11-06T10:20:20.929Z,98030.31
2022-11-06T10:23:06.516Z,97978.84
2022-11-06T10:26:13.284Z,98036.09
2022-11-06T10:29:16.481Z,98029.63
2022-11-06T10:31:48.931Z,98023.72
2022-11-06T10:34:17.844Z,98025.09
2022-11-06T10:36:51.115Z,97984.41
2022-11-06T10:39:27.320Z,98002.38
2022-11-06T10:42:02.297Z,97963.56
2022-11-06T10:44:46.444Z,97821.75
2022-11-06T10:47:37.408Z,97965.13
2022-11-06T10:50:11.441Z,97937.13
2022-11-06T10:52:46.221Z,97987.78
2022-11-06T10:55:39.739Z,97977.31
2022-11-06T10:58:09.884Z,97962.03
2022-11-06T11:00:37.147Z,97967.59
2022-11-06T11:03:13.731Z,97926.03
2022-11-06T11:05:45.059Z,97951.25
2022-11-06T11:08:30.943Z,97961.13
2022-11-06T11:11:15.639Z,97964.63
2022-11-06T11:14:01.482Z,97949.47
2022-11-06T11:16:32.429Z,97904.00
2022-11-06T11:19:39.009Z,97943.09
2022-11-06T11:22:18.954Z,97906.81
2022-11-06T11:25:07.772Z,97931.69
2022-11-06T11:27:44.363Z,97913.97
2022-11-06T11:30:23.357Z,97904.34
2022-11-06T11:32:54.228Z,97930.69
2022-11-06T11:35:27.698Z,97907.50
2022-11-06T11:38:06.676Z,97904.81
2022-11-06T11:40:38.333Z,97738.06
2022-11-06T11:43:28.598Z,97905.72
2022-11-06T11:46:10.597Z,97901.19
2022-11-06T11:48:55.790Z,97893.16
2022-11-06T11:51:30.083Z,97885.34
2022-11-06T11:54:13.938Z,97888.97
2022-11-06T11:57:05.812Z,97855.56
2022-11-06T11:59:41.531Z,97809.63
2022-11-06T12:02:34.658Z,97862.22
2022-11-06T12:05:07.541Z,97796.66
2022-11-06T12:07:45.935Z,97781.13
2022-11-06T12:10:37.929Z,97634.09
2022-11-06T12:13:07.312Z,97654.13
2022-11-06T12:15:56.996Z,97846.28
2022-11-06T12:18:28.096Z,97684.41
2022-11-06T12:21:04.112Z,97822.66
2022-11-06T12:23:53.095Z,97689.69
2022-11-06T12:26:22.695Z,97816.63
2022-11-06T12:28:54.147Z,97815.47
2022-11-06T12:31:35.493Z,97815.22
2022-11-06T12:34:08.444Z,97768.88
2022-11-06T12:36:45.670Z,97791.13
2022-11-06T12:39:19.930Z,97819.50
2022-11-06T12:41:51.140Z,97775.81
2022-11-06T12:44:18.190Z,97627.53
2022-11-06T12:47:14.558Z,97803.50
2022-11-06T12:49:54.530Z,97794.38
2022-11-06T12:52:38.503Z,97728.56
2022-11-06T12:55:26.701Z,97790.88
2022-11-06T12:58:29.031Z,97682.13
2022-11-06T13:01:20.614Z,97728.94
2022-11-06T13:04:24.935Z,97781.50
2022-11-06T13:07:19.722Z,97778.84
2022-11-06T13:10:04.983Z,97780.13
2022-11-06T13:12:48.055Z,97767.50
2022-11-06T13:15:37.221Z,97751.41
2022-11-06T13:18:19.235Z,97615.06
2022-11-06T13:21:04.483Z,97743.03
2022-11-06T13:23:40.223Z,97739.56
2022-11-06T13:26:13.476Z,97555.84
2022-11-06T13:28:45.645Z,97648.81
2022-11-06T13:31:15.194Z,97603.34
2022-11-06T13:33:44.539Z,97728.63
2022-11-06T13:36:11.681Z,97674.81
2022-11-06T13:38:43.279Z,97642.72
2022-11-06T13:41:23.784Z,97725.38
2022-11-06T13:44:06.543Z,97727.53
2022-11-06T13:47:12.816Z,97737.53
2022-11-06T13:49:59.259Z,97732.09
2022-11-06T13:52:53.704Z,97729.25
2022-11-06T13:55:31.273Z,97694.75
2022-11-06T13:58:39.213Z,97738.09
2022-11-06T14:01:40.119Z,97733.84
2022-11-06T14:04:54.129Z,97686.03
2022-11-06T14:07:22.841Z,97740.59
2022-11-06T14:09:49.644Z,97673.31
2022-11-06T14:12:20.724Z,97741.88
2022-11-06T14:14:48.514Z,97730.22
2022-11-06T14:17:18.096Z,97718.31
2022-11-06T14:19:51.354Z,97685.09
2022-11-06T14:22:40.335Z,97693.16
2022-11-06T14:25:37.269Z,97703.78
2022-11-06T14:32:19.877Z,97658.28
2022-11-06T14:34:46.643Z,97692.91
2022-11-06T14:37:19.708Z,97636.59
2022-11-06T14:39:52.980Z,97707.00
2022-11-06T14:42:31.195Z,97605.31
2022-11-06T14:45:08.962Z,97701.13
2022-11-06T14:47:54.512Z,97695.78
2022-11-06T14:50:38.166Z,97715.44
2022-11-06T14:53:29.846Z,97676.88
2022-11-06T14:56:07.482Z,97648.63
2022-11-06T14:59:01.272Z,97697.50
2022-11-06T15:01:34.198Z,97716.13
2022-11-06T15:12:27.379Z,97693.44
2022-11-06T15:14:56.472Z,97563.81
2022-11-06T15:17:25.355Z,97678.16
2022-11-06T15:20:05.535Z,97672.09
2022-11-06T15:22:41.675Z,97695.22
2022-11-06T15:25:17.196Z,97691.66
2022-11-06T15:27:48.173Z,97550.78
2022-11-06T15:30:18.283Z,97396.53
2022-11-06T15:32:54.232Z,97484.75
2022-11-06T15:35:33.071Z,97467.38
2022-11-06T15:38:16.032Z,97614.53
2022-11-06T15:40:44.584Z,97664.53
2022-11-06T15:43:19.429Z,97665.16
2022-11-06T15:45:45.970Z,97663.38
2022-11-06T15:48:21.910Z,97643.25
2022-11-06T15:50:49.175Z,97693.56
2022-11-06T15:53:21.515Z,97688.38
2022-11-06T15:56:01.406Z,97679.09
2022-11-06T15:58:44.595Z,97634.91
2022-11-06T16:01:12.135Z,97677.81
2022-11-06T16:03:53.504Z,97565.16
2022-11-06T16:06:20.968Z,97571.47
2022-11-06T16:08:50.385Z,97646.41
2022-11-06T16:11:19.998Z,97627.16
2022-11-06T16:13:47.878Z,97651.50
2022-11-06T16:16:40.926Z,97687.19
2022-11-06T16:19:21.681Z,97695.38
2022-11-06T16:22:05.738Z,97649.94
2022-11-06T16:24:40.044Z,97560.44
2022-11-06T16:27:07.601Z,97657.03
2022-11-06T16:29:35.222Z,97672.72
2022-11-06T16:32:08.235Z,97602.38
2022-11-06T16:34:47.000Z,97703.13
2022-11-06T16:37:37.793Z,97678.03
2022-11-06T16:40:06.358Z,97671.50
2022-11-06T16:42:36.586Z,97693.03
2022-11-06T16:45:03.235Z,97692.44
2022-11-06T16:48:15.860Z,97679.59
2022-11-06T16:50:55.671Z,97572.81
2022-11-06T16:53:25.818Z,97666.66
2022-11-06T16:56:01.758Z,97673.41
2022-11-06T16:58:32.521Z,97573.63
2022-11-06T17:01:05.294Z,97500.38
2022-11-06T17:03:52.943Z,97682.94
2022-11-06T17:06:51.636Z,97681.69
2022-11-06T17:09:33.869Z,97582.59
2022-11-06T17:12:10.625Z,97675.22
2022-11-06T17:14:37.052Z,97667.00
2022-11-06T17:17:03.702Z,97675.16
2022-11-06T17:19:30.522Z,97664.25
2022-11-06T17:21:57.894Z,97656.25
2022-11-06T17:24:36.614Z,97662.91
2022-11-06T17:27:04.031Z,97661.88
2022-11-06T17:29:30.674Z,97659.31
2022-11-06T17:31:57.075Z,97664.34
2022-11-06T17:34:23.481Z,97658.06
2022-11-06T17:36:49.986Z,97644.66
2022-11-06T17:39:16.455Z,97657.78
2022-11-06T17:41:43.109Z,97659.72
2022-11-06T17:44:12.216Z,97681.09
2022-11-06T17:46:44.144Z,97681.47
2022-11-06T17:49:17.127Z,97685.97
2022-11-06T17:51:50.596Z,97680.13
2022-11-06T17:54:21.813Z,97681.81
2022-11-06T17:56:49.784Z,97686.72
2022-11-06T17:59:16.239Z,97688.34
2022-11-06T18:01:43.117Z,97698.22
2022-11-06T18:04:10.382Z,97706.50
2022-11-06T18:06:37.043Z,97709.59
2022-11-06T18:09:06.364Z,97710.75
2022-11-06T18:11:33.244Z,97691.16
2022-11-06T18:13:59.873Z,97691.56
2022-11-06T18:16:28.939Z,97706.75
2022-11-06T18:18:56.058Z,97702.78
2022-11-06T18:21:23.004Z,97703.53
2022-11-06T18:23:49.758Z,97703.97
2022-11-06T18:26:16.543Z,97707.09
2022-11-06T18:28:42.979Z,97717.31
2022-11-06T18:31:09.463Z,97722.78
2022-11-06T18:33:35.911Z,97710.31
2022-11-06T18:36:04.876Z,97712.75
2022-11-06T18:38:31.948Z,97703.38
2022-11-06T18:40:58.790Z,97714.00
2022-11-06T18:43:25.470Z,97715.84
2022-11-06T18:45:52.076Z,97705.09
2022-11-06T18:48:21.621Z,97697.56
2022-11-06T18:50:48.633Z,97694.53
2022-11-06T18:53:15.344Z,97698.16
2022-11-06T18:55:45.972Z,97696.25
2022-11-06T18:58:12.983Z,97710.41
2022-11-06T19:00:39.642Z,97718.81
2022-11-06T19:03:06.537Z,97716.38
2022-11-06T19:05:34.167Z,97709.81
2022-11-06T19:08:01.373Z,97720.88
2022-11-06T19:10:29.383Z,97736.03
2022-11-06T19:12:59.283Z,97738.03
2022-11-06T19:15:26.508Z,97735.72
2022-11-06T19:17:54.655Z,97752.84
2022-11-06T19:20:21.739Z,97753.81
2022-11-06T19:22:52.486Z,97759.34
2022-11-06T19:25:20.204Z,97754.03
2022-11-06T19:27:47.392Z,97767.06
2022-11-06T19:30:14.738Z,97758.31
2022-11-06T19:32:42.091Z,97760.97
2022-11-06T19:35:09.066Z,97759.34
2022-11-06T19:37:37.190Z,97760.38
2022-11-06T19:40:06.073Z,97762.44
2022-11-06T19:42:33.098Z,97759.34
2022-11-06T19:45:00.236Z,97756.25
2022-11-06T19:47:28.033Z,97758.91
2022-11-06T19:49:54.538Z,97748.22
2022-11-06T19:52:42.159Z,97751.53
2022-11-06T19:55:25.836Z,97733.63
2022-11-06T19:57:54.633Z,97736.53
2022-11-06T20:00:21.114Z,97746.75
2022-11-06T20:02:50.974Z,97755.50
2022-11-06T20:05:18.186Z,97764.31
2022-11-06T20:07:44.748Z,97765.81
2022-11-06T20:10:11.426Z,97773.47
2022-11-06T20:12:38.069Z,97781.66
2022-11-06T20:15:05.218Z,97785.13
2022-11-06T20:17:31.654Z,97786.72
2022-11-06T20:19:58.207Z,97795.66
2022-11-06T20:22:25.319Z,97799.31
2022-11-06T20:24:51.772Z,97804.03
2022-11-06T20:27:18.213Z,97812.75
2022-11-06T20:29:45.046Z,97807.44
2022-11-06T20:32:13.613Z,97815.00
2022-11-06T20:34:42.774Z,97824.22
2022-11-06T20:37:09.177Z,97831.94
2022-11-06T20:39:35.876Z,97837.91
2022-11-06T20:42:02.321Z,97839.97
2022-11-06T20:44:28.807Z,97842.63
2022-11-06T20:46:55.319Z,97834.22
2022-11-06T20:49:21.851Z,97839.69
2022-11-06T20:52:12.658Z,97842.56
2022-11-06T20:54:35.043Z,97838.91
2022-11-06T20:57:01.964Z,97836.88
2022-11-06T20:59:28.412Z,97839.13
2022-11-06T21:01:54.939Z,97835.91
2022-11-06T21:04:21.521Z,97837.66
2022-11-06T21:06:48.016Z,97839.72
2022-11-06T21:09:16.542Z,97808.84
2022-11-06T21:11:42.995Z,97839.31
2022-11-06T21:14:09.921Z,97840.22
2022-11-06T21:16:37.281Z,97841.78
2022-11-06T21:19:04.743Z,97850.41
2022-11-06T21:21:34.397Z,97851.22
2022-11-06T21:24:02.131Z,97853.88
2022-11-06T21:26:34.014Z,97849.00
2022-11-06T21:29:02.397Z,97852.66
2022-11-06T21:31:30.744Z,97848.41
2022-11-06T21:34:00.001Z,97840.63
2022-11-06T21:36:31.935Z,97843.84
2022-11-06T21:39:00.948Z,97839.38
2022-11-06T21:41:29.247Z,97847.00
2022-11-06T21:43:56.360Z,97843.28
2022-11-06T21:46:22.808Z,97850.50
2022-11-06T21:48:50.292Z,97840.72
2022-11-06T21:51:22.881Z,97860.63
2022-11-06T21:54:08.891Z,97853.25
2022-11-06T21:56:36.017Z,97854.91
2022-11-06T21:59:04.775Z,97872.84
2022-11-06T22:01:32.446Z,97870.41
2022-11-06T22:04:00.014Z,97875.06
2022-11-06T22:06:27.932Z,97862.91
2022-11-06T22:08:56.608Z,97864.16
2022-11-06T22:11:26.173Z,97870.50
2022-11-06T22:13:53.772Z,97865.59
2022-11-06T22:16:32.887Z,97873.97
2022-11-06T22:18:59.667Z,97883.13
2022-11-06T22:21:28.485Z,97876.00
2022-11-06T22:23:55.687Z,97871.09
2022-11-06T22:26:27.667Z,97878.03
2022-11-06T22:28:56.037Z,97885.59
2022-11-06T22:31:23.747Z,97867.38
2022-11-06T22:33:53.970Z,97878.16
2022-11-06T22:36:21.776Z,97877.94
2022-11-06T22:38:48.634Z,97871.44
2022-11-06T22:41:18.005Z,97872.03
2022-11-06T22:43:44.940Z,97880.59
2022-11-06T22:46:17.806Z,97885.13
2022-11-06T22:48:45.234Z,97892.25
2022-11-06T22:51:14.518Z,97880.31
2022-11-06T22:53:41.206Z,97880.75
2022-11-06T22:56:08.203Z,97880.75
2022-11-06T22:58:35.188Z,97881.34
2022-11-06T23:01:01.629Z,97884.56
2022-11-06T23:03:29.478Z,97885.56
2022-11-06T23:05:58.103Z,97883.56
2022-11-06T23:08:26.228Z,97873.69
2022-11-06T23:10:53.904Z,97872.09
2022-11-06T23:13:20.373Z,97879.16
2022-11-06T23:15:47.197Z,97876.06
2022-11-06T23:18:13.848Z,97881.56
2022-11-06T23:20:40.243Z,97878.03
2022-11-06T23:23:07.015Z,97890.84
2022-11-06T23:25:33.445Z,97893.50
2022-11-06T23:28:01.458Z,97907.34
2022-11-06T23:30:31.721Z,97880.47
2022-11-06T23:32:58.824Z,97907.88
2022-11-06T23:35:31.082Z,97898.34
2022-11-06T23:37:59.217Z,97889.72
2022-11-06T23:40:26.238Z,97900.94
2022-11-06T23:42:54.689Z,97913.38
2022-11-06T23:45:39.958Z,97910.53
2022-11-06T23:48:16.393Z,97912.97
2022-11-06T23:50:47.039Z,97910.84
2022-11-06T23:53:17.205Z,97916.53
2022-11-06T23:55:44.034Z,97917.44
2022-11-06T23:58:10.555Z,97934.47
